createdAt,value
2018-08-04T00:02:17.128Z,27.70
2018-08-04T00:04:45.505Z,27.70
2018-08-04T00:07:14.069Z,27.70
2018-08-04T00:09:42.471Z,27.60
2018-08-04T00:12:11.858Z,27.70
2018-08-04T00:14:40.352Z,27.70
2018-08-04T00:17:08.710Z,27.60
2018-08-04T00:19:37.140Z,27.40
2018-08-04T00:22:05.572Z,27.50
2018-08-04T00:24:33.965Z,27.40
2018-08-04T00:27:02.338Z,27.40
2018-08-04T00:29:30.730Z,27.30
2018-08-04T00:31:59.130Z,27.40
2018-08-04T00:34:27.466Z,27.40
2018-08-04T00:36:55.838Z,27.30
2018-08-04T00:39:24.273Z,27.30
2018-08-04T00:41:52.780Z,27.30
2018-08-04T00:44:21.182Z,27.20
2018-08-04T00:46:49.535Z,27.20
2018-08-04T00:49:17.950Z,27.20
2018-08-04T00:51:46.484Z,27.20
2018-08-04T00:54:15.002Z,27.20
2018-08-04T00:56:43.551Z,27.10
2018-08-04T00:59:11.983Z,27.10
2018-08-04T01:01:40.416Z,27.00
2018-08-04T01:04:08.834Z,26.90
2018-08-04T01:09:07.456Z,26.90
2018-08-04T01:11:35.906Z,26.90
2018-08-04T01:14:04.351Z,26.90
2018-08-04T01:16:32.753Z,26.90
2018-08-04T01:19:01.163Z,26.90
2018-08-04T01:21:29.562Z,26.90
2018-08-04T01:23:57.971Z,26.90
2018-08-04T01:26:26.348Z,26.90
2018-08-04T01:28:54.682Z,26.90
2018-08-04T01:31:23.102Z,26.90
2018-08-04T01:33:51.794Z,26.80
2018-08-04T01:36:20.169Z,26.70
2018-08-04T01:38:48.521Z,26.60
2018-08-04T01:41:16.952Z,26.60
2018-08-04T01:43:45.301Z,26.50
2018-08-04T01:46:13.986Z,26.50
2018-08-04T01:48:42.430Z,26.40
2018-08-04T01:51:10.846Z,26.40
2018-08-04T01:53:39.251Z,26.30
2018-08-04T01:56:07.624Z,26.40
2018-08-04T02:01:04.100Z,26.30
2018-08-04T02:03:32.510Z,26.30
2018-08-04T02:06:00.883Z,26.30
2018-08-04T02:08:29.271Z,26.20
2018-08-04T02:10:57.738Z,26.10
2018-08-04T02:13:26.130Z,26.20
2018-08-04T02:15:54.504Z,26.20
2018-08-04T02:18:22.958Z,26.10
2018-08-04T02:20:51.331Z,26.20
2018-08-04T02:23:19.857Z,26.20
2018-08-04T02:25:48.247Z,26.20
2018-08-04T02:28:16.747Z,26.30
2018-08-04T02:30:45.213Z,26.30
2018-08-04T02:33:13.673Z,26.30
2018-08-04T02:35:42.048Z,26.20
2018-08-04T02:38:10.501Z,26.20
2018-08-04T02:40:38.985Z,26.20
2018-08-04T02:43:07.387Z,26.20
2018-08-04T02:45:35.782Z,26.20
2018-08-04T02:48:04.166Z,26.20
2018-08-04T02:50:32.563Z,26.20
2018-08-04T02:53:01.011Z,26.10
2018-08-04T02:55:29.373Z,26.00
2018-08-04T02:57:57.710Z,26.00
2018-08-04T03:00:26.083Z,26.00
2018-08-04T03:02:54.462Z,26.00
2018-08-04T03:05:22.919Z,26.10
2018-08-04T03:07:51.455Z,26.00
2018-08-04T03:10:19.914Z,26.10
2018-08-04T03:12:48.399Z,26.10
2018-08-04T03:15:16.840Z,26.20
2018-08-04T03:17:45.252Z,26.20
2018-08-04T03:20:13.735Z,26.10
2018-08-04T03:22:42.112Z,26.10
2018-08-04T03:25:10.482Z,26.10
2018-08-04T03:27:38.825Z,26.10
2018-08-04T03:30:07.328Z,26.10
2018-08-04T03:32:35.669Z,26.10
2018-08-04T03:35:04.296Z,26.10
2018-08-04T03:37:32.709Z,25.90
2018-08-04T03:40:01.124Z,25.90
2018-08-04T03:42:29.505Z,25.90
2018-08-04T03:44:57.888Z,25.80
2018-08-04T03:49:54.586Z,25.80
2018-08-04T03:52:23.063Z,25.80
2018-08-04T03:54:51.587Z,25.80
2018-08-04T03:57:20.070Z,25.80
2018-08-04T03:59:48.550Z,25.70
2018-08-04T04:02:16.883Z,25.70
2018-08-04T04:04:45.285Z,25.70
2018-08-04T04:07:13.738Z,25.70
2018-08-04T04:09:42.109Z,25.70
2018-08-04T04:12:10.526Z,25.70
2018-08-04T04:14:38.950Z,25.80
2018-08-04T04:17:07.433Z,25.70
2018-08-04T04:19:35.857Z,25.80
2018-08-04T04:22:04.538Z,25.70
2018-08-04T04:24:32.925Z,25.70
2018-08-04T04:27:01.302Z,25.70
2018-08-04T04:29:29.645Z,25.70
2018-08-04T04:31:58.047Z,25.80
2018-08-04T04:34:27.055Z,25.80
2018-08-04T04:36:55.861Z,25.90
2018-08-04T04:39:29.982Z,25.90
2018-08-04T04:41:59.518Z,25.90
2018-08-04T04:44:28.346Z,25.90
2018-08-04T04:46:58.789Z,26.00
2018-08-04T04:49:27.954Z,26.00
2018-08-04T04:51:57.222Z,25.90
2018-08-04T04:54:29.594Z,26.00
2018-08-04T04:56:58.383Z,26.00
2018-08-04T04:59:27.092Z,26.10
2018-08-04T05:01:56.676Z,26.20
2018-08-04T05:04:26.817Z,26.20
2018-08-04T05:06:58.696Z,26.10
2018-08-04T05:09:28.823Z,26.10
2018-08-04T05:12:02.349Z,26.10
2018-08-04T05:14:31.793Z,26.10
2018-08-04T05:17:01.508Z,26.10
2018-08-04T05:19:31.430Z,26.20
2018-08-04T05:22:00.755Z,26.10
2018-08-04T05:24:29.396Z,26.20
2018-08-04T05:26:58.359Z,26.20
2018-08-04T05:29:27.396Z,26.30
2018-08-04T05:31:56.623Z,26.30
2018-08-04T05:34:25.712Z,26.40
2018-08-04T05:36:54.250Z,26.40
2018-08-04T05:39:24.036Z,26.50
2018-08-04T05:41:53.544Z,26.50
2018-08-04T05:44:22.347Z,26.70
2018-08-04T05:46:51.124Z,26.80
2018-08-04T05:49:19.754Z,27.00
2018-08-04T05:51:48.359Z,27.60
2018-08-04T05:54:16.851Z,28.20
2018-08-04T05:56:46.071Z,28.80
2018-08-04T05:59:14.642Z,29.00
2018-08-04T06:01:43.351Z,29.40
2018-08-04T06:04:12.903Z,29.20
2018-08-04T06:06:41.859Z,28.90
2018-08-04T06:09:11.558Z,28.50
2018-08-04T06:11:40.691Z,28.40
2018-08-04T06:14:09.631Z,28.30
2018-08-04T06:16:38.294Z,28.20
2018-08-04T06:19:08.833Z,28.20
2018-08-04T06:21:37.742Z,28.20
2018-08-04T06:24:06.109Z,28.60
2018-08-04T06:26:34.450Z,28.80
2018-08-04T06:29:02.774Z,28.60
2018-08-04T06:31:31.193Z,28.30
2018-08-04T06:33:59.504Z,28.10
2018-08-04T06:36:27.805Z,27.90
2018-08-04T06:38:56.140Z,27.90
2018-08-04T06:41:24.538Z,28.20
2018-08-04T06:43:52.913Z,28.50
2018-08-04T06:46:21.306Z,29.10
2018-08-04T06:48:49.642Z,29.30
2018-08-04T06:51:18.150Z,29.40
2018-08-04T06:53:46.525Z,29.70
2018-08-04T06:56:14.899Z,29.50
2018-08-04T06:58:43.206Z,29.60
2018-08-04T07:01:11.581Z,29.50
2018-08-04T07:03:39.928Z,29.40
2018-08-04T07:06:08.343Z,29.60
2018-08-04T07:08:36.725Z,29.70
2018-08-04T07:11:05.101Z,29.90
2018-08-04T07:13:33.544Z,30.20
2018-08-04T07:16:01.983Z,30.60
2018-08-04T07:18:30.370Z,31.20
2018-08-04T07:20:58.685Z,31.20
2018-08-04T07:23:27.041Z,31.40
2018-08-04T07:25:55.382Z,31.30
2018-08-04T07:28:23.793Z,31.40
2018-08-04T07:30:52.105Z,31.50
2018-08-04T07:33:20.547Z,31.60
2018-08-04T07:35:48.897Z,31.80
2018-08-04T07:38:17.234Z,31.80
2018-08-04T07:40:45.608Z,32.00
2018-08-04T07:43:13.998Z,32.30
2018-08-04T07:45:42.629Z,32.70
2018-08-04T07:48:11.096Z,32.70
2018-08-04T07:50:39.598Z,32.90
2018-08-04T07:53:07.958Z,33.00
2018-08-04T07:55:36.451Z,33.10
2018-08-04T07:58:05.052Z,32.90
2018-08-04T08:00:33.457Z,33.00
2018-08-04T08:03:01.888Z,33.00
2018-08-04T08:05:30.236Z,32.90
2018-08-04T08:07:58.603Z,33.00
2018-08-04T08:10:27.087Z,33.50
2018-08-04T08:12:55.384Z,33.40
2018-08-04T08:15:23.850Z,34.00
2018-08-04T08:17:52.258Z,34.20
2018-08-04T08:20:20.682Z,34.40
2018-08-04T08:22:49.022Z,34.20
2018-08-04T08:25:17.431Z,34.30
2018-08-04T08:27:45.755Z,34.40
2018-08-04T08:30:15.078Z,34.50
2018-08-04T08:32:43.498Z,34.60
2018-08-04T08:35:12.097Z,34.20
2018-08-04T08:37:40.879Z,34.10
2018-08-04T08:40:09.775Z,33.70
2018-08-04T08:45:08.061Z,32.90
2018-08-04T08:47:36.461Z,32.80
2018-08-04T08:50:08.293Z,32.60
2018-08-04T08:52:37.192Z,32.50
2018-08-04T08:55:06.277Z,32.30
2018-08-04T08:57:34.677Z,32.10
2018-08-04T09:00:03.617Z,32.30
2018-08-04T09:02:32.025Z,32.30
2018-08-04T09:05:00.638Z,32.40
2018-08-04T09:07:28.994Z,33.10
2018-08-04T09:09:57.396Z,33.60
2018-08-04T09:12:25.796Z,33.30
2018-08-04T09:14:54.278Z,33.20
2018-08-04T09:17:22.695Z,33.40
2018-08-04T09:19:51.028Z,33.70
2018-08-04T09:22:19.408Z,33.90
2018-08-04T09:24:47.714Z,33.80
2018-08-04T09:27:16.056Z,34.20
2018-08-04T09:29:44.402Z,34.30
2018-08-04T09:32:12.761Z,34.30
2018-08-04T09:34:41.122Z,34.50
2018-08-04T09:37:09.812Z,34.80
2018-08-04T09:39:38.187Z,35.00
2018-08-04T09:42:06.833Z,35.30
2018-08-04T09:44:35.175Z,35.70
2018-08-04T09:47:03.542Z,35.80
2018-08-04T09:49:31.849Z,35.70
2018-08-04T09:52:00.246Z,35.80
2018-08-04T09:54:28.554Z,35.90
2018-08-04T09:56:56.929Z,36.10
2018-08-04T09:59:25.227Z,36.00
2018-08-04T10:02:24.723Z,35.90
2018-08-04T10:04:53.722Z,36.10
2018-08-04T10:07:22.190Z,36.10
2018-08-04T10:09:51.042Z,35.50
2018-08-04T10:12:19.461Z,34.80
2018-08-04T10:14:47.940Z,34.80
2018-08-04T10:17:16.289Z,35.00
2018-08-04T10:19:44.656Z,34.90
2018-08-04T10:22:13.633Z,34.80
2018-08-04T10:24:42.070Z,34.60
2018-08-04T10:27:10.721Z,34.60
2018-08-04T10:32:07.546Z,34.50
2018-08-04T10:34:35.645Z,34.80
2018-08-04T10:37:03.991Z,34.90
2018-08-04T10:39:33.025Z,34.80
2018-08-04T10:42:01.395Z,34.90
2018-08-04T10:44:29.811Z,34.70
2018-08-04T10:46:58.157Z,34.60
2018-08-04T10:49:26.527Z,34.60
2018-08-04T10:51:54.858Z,34.70
2018-08-04T10:54:23.178Z,34.60
2018-08-04T10:56:51.530Z,34.50
2018-08-04T10:59:20.430Z,34.30
2018-08-04T11:01:48.749Z,34.20
2018-08-04T11:04:17.101Z,34.20
2018-08-04T11:06:45.429Z,34.20
2018-08-04T11:09:13.749Z,34.50
2018-08-04T11:11:42.247Z,34.50
2018-08-04T11:14:11.090Z,34.70
2018-08-04T11:16:39.520Z,34.90
2018-08-04T11:19:08.022Z,34.90
2018-08-04T11:21:36.406Z,35.10
2018-08-04T11:24:04.736Z,35.40
2018-08-04T11:26:33.089Z,35.60
2018-08-04T11:29:01.351Z,35.50
2018-08-04T11:31:29.701Z,35.50
2018-08-04T11:33:58.068Z,35.80
2018-08-04T11:36:26.492Z,35.90
2018-08-04T11:38:54.894Z,35.90
2018-08-04T11:41:23.228Z,36.10
2018-08-04T11:43:51.626Z,36.20
2018-08-04T11:46:20.138Z,36.20
2018-08-04T11:48:48.458Z,36.20
2018-08-04T11:51:16.789Z,35.70
2018-08-04T11:53:45.166Z,35.30
2018-08-04T11:56:13.637Z,35.00
2018-08-04T11:58:42.078Z,34.80
2018-08-04T12:01:10.532Z,34.50
2018-08-04T12:03:38.874Z,34.60
2018-08-04T12:06:07.230Z,34.50
2018-08-04T12:08:35.582Z,34.40
2018-08-04T12:11:04.025Z,34.20
2018-08-04T12:13:32.342Z,34.00
2018-08-04T12:16:00.715Z,33.80
2018-08-04T12:18:29.087Z,34.00
2018-08-04T12:20:57.500Z,33.90
2018-08-04T12:23:25.832Z,34.10
2018-08-04T12:25:54.148Z,34.10
2018-08-04T12:28:22.571Z,34.10
2018-08-04T12:30:51.026Z,34.10
2018-08-04T12:33:19.374Z,34.20
2018-08-04T12:35:47.691Z,34.50
2018-08-04T12:38:16.055Z,34.90
2018-08-04T12:40:44.365Z,35.30
2018-08-04T12:43:12.734Z,35.60
2018-08-04T12:45:41.066Z,35.90
2018-08-04T12:48:09.467Z,36.10
2018-08-04T12:50:37.860Z,36.10
2018-08-04T12:53:06.297Z,36.10
2018-08-04T12:55:34.663Z,36.20
2018-08-04T12:58:03.066Z,36.30
2018-08-04T13:00:31.530Z,36.50
2018-08-04T13:02:59.836Z,36.30
2018-08-04T13:05:28.215Z,36.20
2018-08-04T13:07:56.572Z,36.20
2018-08-04T13:10:24.935Z,36.50
2018-08-04T13:12:53.808Z,36.10
2018-08-04T13:15:22.218Z,35.90
2018-08-04T13:17:50.629Z,35.60
2018-08-04T13:20:18.984Z,35.70
2018-08-04T13:22:47.309Z,36.00
2018-08-04T13:25:15.635Z,35.60
2018-08-04T13:27:43.966Z,35.40
2018-08-04T13:30:12.382Z,35.80
2018-08-04T13:32:40.725Z,35.90
2018-08-04T13:35:09.088Z,35.90
2018-08-04T13:37:37.419Z,35.60
2018-08-04T13:40:05.848Z,35.00
2018-08-04T13:42:34.208Z,34.60
2018-08-04T13:45:02.847Z,33.70
2018-08-04T13:49:59.244Z,31.20
2018-08-04T13:52:27.643Z,29.70
2018-08-04T13:54:56.034Z,28.90
2018-08-04T13:57:24.373Z,28.30
2018-08-04T13:59:52.701Z,28.00
2018-08-04T14:02:21.109Z,28.10
2018-08-04T14:04:49.433Z,28.20
2018-08-04T14:07:17.782Z,27.90
2018-08-04T14:09:46.157Z,27.80
2018-08-04T14:12:14.527Z,27.50
2018-08-04T14:14:42.841Z,28.10
2018-08-04T14:17:11.242Z,28.30
2018-08-04T14:19:40.005Z,28.40
2018-08-04T14:22:08.460Z,28.50
2018-08-04T14:24:36.798Z,28.70
2018-08-04T14:27:05.319Z,28.70
2018-08-04T14:29:33.638Z,28.70
2018-08-04T14:32:02.152Z,28.70
2018-08-04T14:34:30.546Z,28.60
2018-08-04T14:36:58.932Z,28.60
2018-08-04T14:39:27.301Z,28.80
2018-08-04T14:41:55.774Z,28.90
2018-08-04T14:44:24.151Z,28.90
2018-08-04T14:46:52.498Z,29.00
2018-08-04T14:49:20.854Z,29.10
2018-08-04T14:51:49.550Z,29.30
2018-08-04T14:54:17.920Z,29.40
2018-08-04T14:56:46.252Z,29.60
2018-08-04T14:59:14.644Z,29.70
2018-08-04T15:01:42.953Z,29.80
2018-08-04T15:04:11.365Z,29.80
2018-08-04T15:06:39.946Z,29.90
2018-08-04T15:09:10.365Z,30.00
2018-08-04T15:14:07.043Z,30.30
2018-08-04T15:16:35.399Z,30.30
2018-08-04T15:19:04.141Z,30.40
2018-08-04T15:21:32.579Z,30.50
2018-08-04T15:24:01.140Z,30.60
2018-08-04T15:26:29.677Z,30.60
2018-08-04T15:28:58.108Z,30.70
2018-08-04T15:31:26.536Z,30.90
2018-08-04T15:33:54.997Z,31.00
2018-08-04T15:36:23.363Z,31.00
2018-08-04T15:38:51.742Z,31.10
2018-08-04T15:41:20.107Z,31.00
2018-08-04T15:43:48.523Z,31.10
2018-08-04T15:46:17.081Z,31.20
2018-08-04T15:48:45.730Z,31.30
2018-08-04T15:53:42.138Z,31.30
2018-08-04T15:56:10.498Z,31.40
2018-08-04T15:58:38.830Z,31.50
2018-08-04T16:01:07.325Z,31.60
2018-08-04T16:03:35.827Z,31.80
2018-08-04T16:06:04.322Z,32.00
2018-08-04T16:08:32.652Z,32.30
2018-08-04T16:11:01.114Z,32.40
2018-08-04T16:13:33.838Z,32.60
2018-08-04T16:16:02.182Z,32.80
2018-08-04T16:18:30.569Z,33.00
2018-08-04T16:20:58.969Z,33.20
2018-08-04T16:23:27.325Z,33.40
2018-08-04T16:25:55.699Z,33.50
2018-08-04T16:28:24.148Z,33.40
2018-08-04T16:30:52.470Z,33.50
2018-08-04T16:35:48.995Z,33.60
2018-08-04T16:38:17.323Z,33.50
2018-08-04T16:40:45.666Z,33.40
2018-08-04T16:43:14.610Z,33.40
2018-08-04T16:45:49.878Z,33.40
2018-08-04T16:48:18.217Z,33.40
2018-08-04T16:50:46.534Z,33.40
2018-08-04T16:53:14.915Z,33.50
2018-08-04T16:55:43.305Z,33.50
2018-08-04T16:58:11.680Z,33.40
2018-08-04T17:00:40.081Z,33.40
2018-08-04T17:03:08.616Z,33.50
2018-08-04T17:05:36.955Z,33.50
2018-08-04T17:08:06.100Z,33.50
2018-08-04T17:10:34.457Z,33.50
2018-08-04T17:13:02.900Z,33.60
2018-08-04T17:15:31.822Z,33.60
2018-08-04T17:18:00.204Z,33.60
2018-08-04T17:22:57.012Z,33.70
2018-08-04T17:25:25.778Z,33.60
2018-08-04T17:27:54.435Z,33.60
2018-08-04T17:30:22.841Z,33.50
2018-08-04T17:32:51.272Z,33.40
2018-08-04T17:35:19.669Z,33.20
2018-08-04T17:37:48.109Z,33.20
2018-08-04T17:40:16.531Z,33.10
2018-08-04T17:42:44.900Z,33.00
2018-08-04T17:45:13.304Z,33.00
2018-08-04T17:47:41.716Z,33.00
2018-08-04T17:50:10.146Z,32.90
2018-08-04T17:52:38.534Z,32.70
2018-08-04T17:55:07.018Z,32.60
2018-08-04T17:57:35.386Z,32.50
2018-08-04T18:00:03.882Z,32.50
2018-08-04T18:02:32.750Z,32.40
2018-08-04T18:05:01.146Z,32.30
2018-08-04T18:07:29.604Z,32.20
2018-08-04T18:09:58.011Z,32.10
2018-08-04T18:12:26.377Z,32.00
2018-08-04T18:14:54.758Z,32.00
2018-08-04T18:17:23.150Z,31.90
2018-08-04T18:19:51.555Z,32.00
2018-08-04T18:22:20.315Z,31.90
2018-08-04T18:24:48.689Z,31.80
2018-08-04T18:27:17.039Z,31.80
2018-08-04T18:29:45.571Z,31.60
2018-08-04T18:32:18.003Z,31.60
2018-08-04T18:34:46.328Z,31.50
2018-08-04T18:37:14.673Z,31.30
2018-08-04T18:39:43.665Z,31.30
2018-08-04T18:42:12.028Z,31.20
2018-08-04T18:44:40.447Z,31.20
2018-08-04T18:47:09.146Z,31.10
2018-08-04T18:49:37.518Z,31.10
2018-08-04T18:52:05.924Z,31.00
2018-08-04T18:54:34.446Z,30.90
2018-08-04T18:57:02.799Z,30.80
2018-08-04T18:59:31.248Z,30.80
2018-08-04T19:01:59.578Z,30.60
2018-08-04T19:04:27.906Z,30.60
2018-08-04T19:06:56.348Z,30.60
2018-08-04T19:09:24.769Z,30.50
2018-08-04T19:11:53.226Z,30.40
2018-08-04T19:14:21.575Z,30.40
2018-08-04T19:16:49.945Z,30.40
2018-08-04T19:19:18.490Z,30.30
2018-08-04T19:21:46.834Z,30.20
2018-08-04T19:24:15.756Z,30.30
2018-08-04T19:26:44.156Z,30.30
2018-08-04T19:29:12.531Z,30.20
2018-08-04T19:31:40.899Z,30.20
2018-08-04T19:34:09.349Z,30.20
2018-08-04T19:36:37.710Z,30.10
2018-08-04T19:39:07.853Z,30.00
2018-08-04T19:41:36.219Z,30.00
2018-08-04T19:44:04.578Z,30.00
2018-08-04T19:49:01.791Z,29.90
2018-08-04T19:51:30.167Z,29.80
2018-08-04T19:53:58.594Z,29.70
2018-08-04T19:56:27.606Z,29.60
2018-08-04T19:58:55.957Z,29.50
2018-08-04T20:01:24.454Z,29.60
2018-08-04T20:03:52.900Z,29.60
2018-08-04T20:06:21.289Z,29.50
2018-08-04T20:08:49.641Z,29.40
2018-08-04T20:11:18.387Z,29.30
2018-08-04T20:13:46.759Z,29.30
2018-08-04T20:16:15.211Z,29.20
2018-08-04T20:18:43.676Z,29.20
2018-08-04T20:21:12.120Z,29.30
2018-08-04T20:23:40.531Z,29.30
2018-08-04T20:26:08.923Z,29.20
2018-08-04T20:28:37.329Z,29.20
2018-08-04T20:31:05.752Z,29.10
2018-08-04T20:33:34.169Z,29.10
2018-08-04T20:36:02.667Z,29.10
2018-08-04T20:40:59.099Z,29.00
2018-08-04T20:43:34.007Z,29.00
2018-08-04T20:46:02.407Z,29.00
2018-08-04T20:48:30.786Z,29.00
2018-08-04T20:50:59.650Z,28.90
2018-08-04T20:53:28.028Z,28.90
2018-08-04T20:55:56.490Z,28.90
2018-08-04T20:58:24.903Z,28.80
2018-08-04T21:01:04.533Z,28.80
2018-08-04T21:03:32.826Z,28.80
2018-08-04T21:06:01.285Z,28.70
2018-08-04T21:08:29.598Z,28.60
2018-08-04T21:10:58.104Z,28.50
2018-08-04T21:13:26.464Z,28.50
2018-08-04T21:15:54.790Z,28.40
2018-08-04T21:18:23.123Z,28.40
2018-08-04T21:20:51.455Z,28.40
2018-08-04T21:23:19.809Z,28.40
2018-08-04T21:25:48.534Z,28.30
2018-08-04T21:28:16.942Z,28.30
2018-08-04T21:30:45.566Z,28.20
2018-08-04T21:33:14.458Z,28.20
2018-08-04T21:35:42.816Z,28.20
2018-08-04T21:40:39.183Z,28.20
2018-08-04T21:43:07.711Z,28.10
2018-08-04T21:45:36.243Z,28.10
2018-08-04T21:48:04.799Z,28.10
2018-08-04T21:50:33.255Z,28.00
2018-08-04T21:53:01.700Z,28.00
2018-08-04T21:55:30.078Z,28.00
2018-08-04T21:57:58.497Z,27.80
2018-08-04T22:00:26.970Z,27.80
2018-08-04T22:02:59.226Z,27.80
2018-08-04T22:05:28.701Z,27.70
2018-08-04T22:08:09.381Z,27.70
2018-08-04T22:10:38.009Z,27.80
2018-08-04T22:13:06.902Z,27.80
2018-08-04T22:15:35.504Z,27.80
2018-08-04T22:18:04.005Z,27.70
2018-08-04T22:20:32.377Z,27.70
2018-08-04T22:23:00.791Z,27.70
2018-08-04T22:25:30.175Z,27.70
2018-08-04T22:27:59.854Z,27.60
2018-08-04T22:30:28.289Z,27.60
2018-08-04T22:32:56.703Z,27.50
2018-08-04T22:35:25.586Z,27.50
2018-08-04T22:37:54.002Z,27.50
2018-08-04T22:40:22.705Z,27.40
2018-08-04T22:42:51.072Z,27.40
2018-08-04T22:46:22.742Z,27.30
2018-08-04T22:51:35.255Z,27.10
2018-08-04T22:54:03.739Z,27.10
2018-08-04T22:56:32.366Z,27.10
2018-08-04T22:59:00.745Z,27.10
2018-08-04T23:01:29.103Z,26.90
2018-08-04T23:03:58.097Z,26.90
2018-08-04T23:06:34.839Z,27.00
2018-08-04T23:09:03.903Z,27.00
2018-08-04T23:11:32.303Z,26.90
2018-08-04T23:14:00.636Z,26.80
2018-08-04T23:16:28.979Z,26.70
2018-08-04T23:18:57.333Z,26.70
2018-08-04T23:21:25.678Z,26.50
2018-08-04T23:23:54.064Z,26.50
2018-08-04T23:26:22.478Z,26.40
2018-08-04T23:28:50.779Z,26.50
2018-08-04T23:31:19.123Z,26.50
2018-08-04T23:33:47.462Z,26.60
2018-08-04T23:36:15.850Z,26.60
2018-08-04T23:38:44.515Z,26.50
2018-08-04T23:41:12.869Z,26.60
2018-08-04T23:43:41.229Z,26.60
2018-08-04T23:46:09.620Z,26.50
2018-08-04T23:48:37.959Z,26.50
2018-08-04T23:51:06.010Z,26.40
2018-08-04T23:53:34.658Z,26.50
2018-08-04T23:56:03.226Z,26.50
2018-08-04T23:58:31.566Z,26.40
